createdAt,value
2023-05-16T00:02:02.412Z,99.90
2023-05-16T00:04:29.737Z,99.90
2023-05-16T00:06:57.001Z,99.90
2023-05-16T00:09:24.012Z,99.90
2023-05-16T00:11:51.282Z,99.90
2023-05-16T00:14:19.901Z,99.90
2023-05-16T00:16:47.561Z,99.90
2023-05-16T00:19:15.589Z,99.90
2023-05-16T00:21:42.967Z,99.90
2023-05-16T00:24:10.118Z,99.90
2023-05-16T00:26:37.204Z,99.90
2023-05-16T00:29:12.938Z,99.90
2023-05-16T00:31:40.215Z,99.90
2023-05-16T00:34:07.381Z,99.90
2023-05-16T00:36:36.048Z,99.90
2023-05-16T00:39:03.170Z,99.90
2023-05-16T00:41:30.297Z,99.90
2023-05-16T00:43:57.260Z,99.90
2023-05-16T00:46:24.286Z,99.90
2023-05-16T00:48:55.452Z,99.90
2023-05-16T00:51:22.692Z,99.90
2023-05-16T00:53:49.770Z,99.90
2023-05-16T00:56:18.229Z,99.90
2023-05-16T00:58:45.300Z,99.90
2023-05-16T01:01:12.633Z,99.90
2023-05-16T01:03:39.838Z,99.90
2023-05-16T01:06:07.225Z,99.90
2023-05-16T01:08:34.282Z,99.90
2023-05-16T01:11:25.804Z,99.90
2023-05-16T01:14:09.528Z,99.90
2023-05-16T01:16:47.587Z,99.90
2023-05-16T01:19:41.418Z,99.90
2023-05-16T01:22:09.969Z,99.90
2023-05-16T01:24:47.515Z,99.90
2023-05-16T01:27:16.039Z,99.90
2023-05-16T01:29:43.041Z,99.90
2023-05-16T01:32:10.577Z,99.90
2023-05-16T01:34:37.531Z,99.90
2023-05-16T01:37:16.912Z,99.90
2023-05-16T01:40:02.021Z,99.90
2023-05-16T01:42:35.153Z,99.90
2023-05-16T01:45:10.190Z,99.90
2023-05-16T01:47:45.050Z,99.90
2023-05-16T01:50:17.954Z,99.90
2023-05-16T01:52:59.873Z,99.90
2023-05-16T01:55:46.050Z,99.90
2023-05-16T01:58:17.699Z,99.90
2023-05-16T02:00:45.147Z,99.90
2023-05-16T02:03:12.259Z,99.90
2023-05-16T02:05:39.502Z,99.90
2023-05-16T02:08:06.663Z,99.90
2023-05-16T02:10:33.809Z,99.90
2023-05-16T02:13:00.928Z,99.90
2023-05-16T02:15:29.063Z,99.90
2023-05-16T02:17:56.467Z,99.90
2023-05-16T02:20:23.547Z,99.90
2023-05-16T02:22:50.677Z,99.90
2023-05-16T02:25:17.729Z,99.90
2023-05-16T02:27:45.060Z,99.90
2023-05-16T02:30:12.851Z,99.90
2023-05-16T02:32:41.398Z,99.90
2023-05-16T02:35:10.967Z,99.90
2023-05-16T02:37:38.430Z,99.90
2023-05-16T02:40:06.026Z,99.90
2023-05-16T02:42:33.235Z,99.90
2023-05-16T02:45:00.485Z,99.90
2023-05-16T02:47:27.633Z,99.90
2023-05-16T02:49:54.883Z,99.90
2023-05-16T02:52:21.918Z,99.90
2023-05-16T02:55:09.235Z,99.90
2023-05-16T02:57:36.093Z,99.90
2023-05-16T03:00:06.194Z,99.90
2023-05-16T03:02:33.700Z,99.90
2023-05-16T03:05:04.666Z,99.90
2023-05-16T03:07:31.887Z,99.90
2023-05-16T03:09:59.029Z,99.90
2023-05-16T03:12:26.261Z,99.90
2023-05-16T03:14:53.343Z,99.90
2023-05-16T03:17:20.995Z,99.90
2023-05-16T03:19:48.057Z,99.90
2023-05-16T03:22:15.317Z,99.90
2023-05-16T03:24:43.659Z,99.90
2023-05-16T03:27:12.278Z,99.90
2023-05-16T03:29:39.260Z,99.90
2023-05-16T03:32:06.610Z,99.90
2023-05-16T03:34:33.650Z,99.90
2023-05-16T03:37:00.690Z,99.90
2023-05-16T03:39:27.774Z,99.90
2023-05-16T03:41:57.469Z,99.90
2023-05-16T03:44:24.527Z,99.90
2023-05-16T03:46:52.994Z,99.90
2023-05-16T03:49:30.694Z,99.90
2023-05-16T03:51:57.833Z,99.90
2023-05-16T03:54:24.877Z,99.90
2023-05-16T03:56:52.109Z,99.90
2023-05-16T03:59:19.161Z,99.90
2023-05-16T04:01:46.143Z,99.90
2023-05-16T04:04:13.470Z,99.90
2023-05-16T04:06:40.701Z,99.90
2023-05-16T04:09:07.950Z,99.90
2023-05-16T04:11:34.983Z,99.90
2023-05-16T04:14:02.180Z,99.90
2023-05-16T04:16:29.334Z,99.90
2023-05-16T04:18:56.812Z,99.90
2023-05-16T04:21:23.855Z,99.90
2023-05-16T04:23:50.876Z,99.90
2023-05-16T04:26:18.116Z,99.90
2023-05-16T04:28:45.169Z,99.90
2023-05-16T04:31:12.367Z,99.90
2023-05-16T04:33:39.386Z,99.90
2023-05-16T04:36:07.070Z,99.90
2023-05-16T04:38:34.193Z,99.90
2023-05-16T04:41:02.084Z,99.90
2023-05-16T04:43:29.040Z,99.90
2023-05-16T04:45:56.087Z,99.90
2023-05-16T04:48:23.046Z,99.90
2023-05-16T04:50:50.145Z,99.90
2023-05-16T04:53:17.243Z,99.90
2023-05-16T04:55:44.245Z,99.90
2023-05-16T04:58:11.216Z,99.90
2023-05-16T05:00:39.363Z,99.90
2023-05-16T05:03:06.493Z,99.90
2023-05-16T05:05:34.300Z,99.90
2023-05-16T05:08:01.703Z,99.90
2023-05-16T05:10:28.750Z,99.90
2023-05-16T05:12:57.544Z,99.90
2023-05-16T05:15:25.048Z,99.90
2023-05-16T05:17:52.477Z,99.90
2023-05-16T05:20:19.860Z,99.90
2023-05-16T05:22:47.292Z,99.90
2023-05-16T05:25:14.623Z,99.90
2023-05-16T05:27:45.068Z,99.90
2023-05-16T05:30:12.098Z,99.90
2023-05-16T05:32:39.379Z,99.90
2023-05-16T05:35:11.760Z,99.90
2023-05-16T05:37:38.895Z,99.90
2023-05-16T05:40:07.795Z,99.90
2023-05-16T05:42:34.784Z,99.90
2023-05-16T05:45:10.429Z,99.90
2023-05-16T05:47:37.771Z,99.90
2023-05-16T05:50:05.971Z,99.90
2023-05-16T05:52:32.960Z,99.90
2023-05-16T05:55:00.272Z,99.90
2023-05-16T05:57:27.206Z,99.90
2023-05-16T05:59:54.198Z,99.90
2023-05-16T06:02:21.484Z,99.90
2023-05-16T06:04:48.528Z,99.90
2023-05-16T06:07:17.105Z,99.90
2023-05-16T06:09:44.146Z,99.90
2023-05-16T06:12:11.258Z,99.90
2023-05-16T06:14:38.221Z,99.90
2023-05-16T06:17:05.458Z,99.90
2023-05-16T06:19:32.554Z,99.90
2023-05-16T06:21:59.642Z,99.90
2023-05-16T06:24:26.785Z,99.90
2023-05-16T06:26:53.810Z,99.90
2023-05-16T06:29:20.898Z,99.90
2023-05-16T06:31:47.991Z,99.90
2023-05-16T06:34:15.123Z,99.90
2023-05-16T06:36:43.191Z,99.90
2023-05-16T06:39:10.177Z,99.90
2023-05-16T06:41:37.229Z,99.90
2023-05-16T06:44:05.214Z,99.90
2023-05-16T06:46:33.049Z,99.90
2023-05-16T06:49:00.137Z,99.90
2023-05-16T06:51:27.146Z,99.90
2023-05-16T06:53:54.167Z,99.90
2023-05-16T06:56:21.804Z,99.90
2023-05-16T06:58:49.844Z,99.90
2023-05-16T07:01:17.243Z,99.90
2023-05-16T07:03:44.399Z,99.90
2023-05-16T07:06:11.709Z,99.90
2023-05-16T07:08:38.706Z,99.90
2023-05-16T07:11:06.176Z,99.90
2023-05-16T07:13:35.852Z,99.90
2023-05-16T07:16:06.405Z,99.90
2023-05-16T07:18:33.551Z,99.90
2023-05-16T07:21:00.805Z,99.90
2023-05-16T07:23:28.113Z,99.90
2023-05-16T07:25:55.140Z,99.90
2023-05-16T07:28:23.242Z,99.90
2023-05-16T07:30:50.204Z,99.90
2023-05-16T07:33:17.287Z,99.90
2023-05-16T07:35:44.421Z,99.90
2023-05-16T07:38:11.901Z,99.90
2023-05-16T07:40:38.973Z,99.90
2023-05-16T07:43:06.058Z,99.90
2023-05-16T07:45:33.233Z,99.90
2023-05-16T07:48:00.537Z,99.90
2023-05-16T07:50:28.042Z,99.90
2023-05-16T07:52:55.508Z,99.90
2023-05-16T07:55:22.745Z,99.90
2023-05-16T07:57:51.217Z,99.90
2023-05-16T08:00:19.153Z,99.90
2023-05-16T08:02:47.112Z,99.90
2023-05-16T08:05:14.283Z,99.90
2023-05-16T08:07:41.369Z,99.90
2023-05-16T08:10:09.749Z,99.90
2023-05-16T08:12:38.466Z,99.90
2023-05-16T08:15:06.139Z,99.90
2023-05-16T08:17:33.260Z,99.90
2023-05-16T08:20:02.021Z,99.90
2023-05-16T08:22:29.110Z,99.90
2023-05-16T08:25:00.697Z,99.90
2023-05-16T08:27:29.086Z,99.90
2023-05-16T08:29:56.142Z,99.90
2023-05-16T08:32:23.590Z,99.90
2023-05-16T08:34:51.046Z,99.90
2023-05-16T08:37:18.088Z,99.90
2023-05-16T08:39:45.117Z,99.90
2023-05-16T08:42:12.504Z,99.90
2023-05-16T08:44:39.791Z,99.90
2023-05-16T08:47:18.584Z,99.90
2023-05-16T08:49:48.698Z,99.90
2023-05-16T08:52:21.297Z,99.90
2023-05-16T08:55:01.973Z,99.90
2023-05-16T08:57:36.688Z,99.90
2023-05-16T09:00:12.225Z,99.90
2023-05-16T09:02:44.751Z,99.90
2023-05-16T09:05:14.664Z,99.90
2023-05-16T09:07:42.791Z,99.90
2023-05-16T09:10:11.182Z,99.90
2023-05-16T09:12:39.651Z,99.90
2023-05-16T09:15:08.553Z,99.90
2023-05-16T09:17:44.495Z,99.90
2023-05-16T09:20:16.307Z,99.90
2023-05-16T09:22:57.249Z,99.90
2023-05-16T09:25:30.906Z,99.90
2023-05-16T09:28:02.068Z,99.90
2023-05-16T09:30:32.253Z,99.90
2023-05-16T09:32:59.798Z,99.90
2023-05-16T09:35:43.320Z,99.90
2023-05-16T09:38:18.393Z,99.90
2023-05-16T09:40:46.191Z,99.90
2023-05-16T09:43:17.335Z,99.90
2023-05-16T09:45:49.294Z,99.90
2023-05-16T09:48:18.392Z,99.90
2023-05-16T09:50:54.740Z,99.90
2023-05-16T09:53:29.531Z,99.90
2023-05-16T09:56:08.195Z,99.90
2023-05-16T09:58:37.235Z,99.90
2023-05-16T10:01:05.490Z,99.90
2023-05-16T10:03:35.571Z,99.90
2023-05-16T10:06:04.080Z,99.90
2023-05-16T10:08:36.549Z,99.90
2023-05-16T10:11:06.977Z,99.90
2023-05-16T10:13:35.426Z,99.90
2023-05-16T10:16:08.248Z,99.90
2023-05-16T10:18:36.602Z,99.90
2023-05-16T10:21:11.783Z,99.90
2023-05-16T10:23:43.239Z,99.90
2023-05-16T10:26:14.374Z,99.90
2023-05-16T10:28:42.009Z,99.90
2023-05-16T10:31:11.244Z,99.90
2023-05-16T10:33:39.371Z,99.90
2023-05-16T10:36:08.161Z,99.90
2023-05-16T10:38:36.269Z,99.90
2023-05-16T10:41:03.694Z,99.90
2023-05-16T10:43:31.271Z,99.90
2023-05-16T10:46:11.847Z,99.90
2023-05-16T10:48:41.026Z,99.90
2023-05-16T10:51:23.439Z,99.90
2023-05-16T10:53:54.863Z,99.90
2023-05-16T10:56:26.942Z,99.90
2023-05-16T10:58:55.447Z,99.90
2023-05-16T11:01:30.469Z,99.90
2023-05-16T11:03:57.741Z,99.90
2023-05-16T11:06:28.552Z,99.90
2023-05-16T11:09:10.431Z,99.90
2023-05-16T11:11:52.629Z,99.90
2023-05-16T11:14:34.953Z,99.90
2023-05-16T11:17:15.002Z,99.90
2023-05-16T11:20:02.671Z,99.90
2023-05-16T11:22:30.330Z,99.90
2023-05-16T11:25:02.462Z,99.90
2023-05-16T11:27:31.798Z,99.90
2023-05-16T11:30:12.428Z,99.90
2023-05-16T11:32:41.720Z,99.90
2023-05-16T11:35:15.195Z,99.90
2023-05-16T11:37:43.621Z,99.90
2023-05-16T11:40:12.427Z,99.90
2023-05-16T11:42:42.331Z,99.60
2023-05-16T11:45:12.455Z,98.30
2023-05-16T11:47:40.833Z,97.30
2023-05-16T11:50:13.187Z,96.10
2023-05-16T11:52:43.724Z,96.00
2023-05-16T11:55:11.617Z,95.90
2023-05-16T11:57:39.503Z,95.50
2023-05-16T12:00:14.723Z,95.20
2023-05-16T12:02:42.038Z,94.70
2023-05-16T12:05:10.293Z,94.20
2023-05-16T12:07:37.971Z,94.60
2023-05-16T12:10:07.783Z,94.90
2023-05-16T12:12:36.234Z,94.80
2023-05-16T12:15:04.877Z,94.40
2023-05-16T12:17:32.523Z,93.90
2023-05-16T12:20:00.536Z,94.10
2023-05-16T12:22:27.579Z,94.80
2023-05-16T12:24:54.651Z,95.70
2023-05-16T12:27:28.352Z,96.10
2023-05-16T12:29:58.738Z,94.30
2023-05-16T12:32:25.941Z,91.20
2023-05-16T12:34:54.947Z,94.20
2023-05-16T12:37:22.415Z,97.10
2023-05-16T12:39:49.556Z,97.40
2023-05-16T12:42:17.060Z,99.10
2023-05-16T12:44:46.922Z,99.90
2023-05-16T12:47:14.765Z,98.40
2023-05-16T12:49:48.770Z,98.70
2023-05-16T12:52:21.022Z,97.80
2023-05-16T12:54:48.753Z,98.90
2023-05-16T12:57:15.848Z,99.90
2023-05-16T12:59:42.881Z,99.90
2023-05-16T13:02:09.919Z,99.90
2023-05-16T13:04:37.443Z,99.90
2023-05-16T13:07:04.930Z,99.90
2023-05-16T13:09:33.077Z,99.90
2023-05-16T13:12:00.745Z,99.90
2023-05-16T13:14:28.321Z,99.90
2023-05-16T13:16:55.761Z,99.90
2023-05-16T13:19:24.555Z,99.90
2023-05-16T13:21:51.775Z,99.90
2023-05-16T13:24:18.797Z,99.90
2023-05-16T13:26:46.040Z,99.90
2023-05-16T13:29:13.256Z,99.90
2023-05-16T13:31:40.409Z,99.90
2023-05-16T13:34:07.453Z,99.90
2023-05-16T13:36:49.116Z,99.90
2023-05-16T13:39:19.920Z,99.90
2023-05-16T13:41:49.211Z,99.90
2023-05-16T13:44:16.886Z,99.90
2023-05-16T13:46:44.357Z,99.90
2023-05-16T13:49:11.420Z,99.90
2023-05-16T13:51:38.521Z,99.90
2023-05-16T13:54:05.699Z,99.90
2023-05-16T13:56:32.723Z,99.90
2023-05-16T13:59:05.936Z,99.90
2023-05-16T14:01:34.606Z,99.90
2023-05-16T14:04:01.854Z,99.90
2023-05-16T14:06:29.349Z,99.90
2023-05-16T14:08:56.487Z,99.90
2023-05-16T14:11:29.072Z,99.90
2023-05-16T14:13:57.707Z,99.90
2023-05-16T14:16:24.964Z,99.90
2023-05-16T14:18:52.142Z,99.90
2023-05-16T14:21:19.945Z,99.90
2023-05-16T14:23:47.001Z,99.90
2023-05-16T14:26:14.111Z,99.90
2023-05-16T14:28:41.448Z,99.90
2023-05-16T14:31:08.647Z,99.90
2023-05-16T14:33:35.824Z,99.90
2023-05-16T14:36:02.893Z,99.90
2023-05-16T14:38:29.970Z,99.90
2023-05-16T14:40:57.051Z,99.90
2023-05-16T14:43:24.095Z,99.90
2023-05-16T14:45:51.202Z,99.90
2023-05-16T14:48:18.490Z,99.90
2023-05-16T14:50:46.217Z,99.90
2023-05-16T14:53:13.370Z,99.90
2023-05-16T14:55:40.457Z,99.90
2023-05-16T14:58:07.641Z,99.90
2023-05-16T15:00:34.748Z,99.90
2023-05-16T15:03:02.448Z,99.90
2023-05-16T15:05:30.017Z,99.90
2023-05-16T15:07:57.150Z,99.90
2023-05-16T15:10:24.316Z,99.90
2023-05-16T15:12:51.413Z,99.90
2023-05-16T15:15:18.454Z,99.90
2023-05-16T15:17:51.658Z,99.90
2023-05-16T15:20:20.524Z,99.90
2023-05-16T15:22:50.101Z,99.90
2023-05-16T15:25:19.620Z,99.90
2023-05-16T15:27:46.634Z,99.90
2023-05-16T15:30:14.798Z,99.90
2023-05-16T15:32:41.862Z,99.90
2023-05-16T15:35:11.702Z,99.90
2023-05-16T15:37:39.118Z,99.90
2023-05-16T15:40:07.258Z,99.90
2023-05-16T15:42:34.334Z,99.90
2023-05-16T15:45:01.483Z,99.90
2023-05-16T15:47:28.650Z,99.90
2023-05-16T15:49:55.734Z,99.90
2023-05-16T15:52:23.059Z,99.90
2023-05-16T15:54:50.648Z,99.90
2023-05-16T15:57:18.085Z,99.90
2023-05-16T15:59:45.151Z,99.90
2023-05-16T16:02:12.228Z,99.90
2023-05-16T16:04:39.437Z,99.90
2023-05-16T16:07:06.466Z,99.90
2023-05-16T16:09:33.649Z,99.90
2023-05-16T16:12:00.728Z,99.90
2023-05-16T16:14:27.980Z,99.90
2023-05-16T16:16:57.556Z,99.90
2023-05-16T16:19:25.031Z,99.90
2023-05-16T16:21:52.432Z,99.90
2023-05-16T16:24:20.495Z,99.90
2023-05-16T16:26:47.685Z,99.90
2023-05-16T16:29:14.799Z,99.90
2023-05-16T16:31:41.966Z,99.90
2023-05-16T16:34:09.054Z,99.90
2023-05-16T16:36:36.120Z,99.90
2023-05-16T16:39:05.953Z,99.90
2023-05-16T16:41:32.987Z,99.90
2023-05-16T16:44:00.007Z,99.90
2023-05-16T16:46:27.229Z,99.90
2023-05-16T16:48:54.927Z,99.90
2023-05-16T16:51:22.258Z,99.90
2023-05-16T16:53:49.289Z,99.90
2023-05-16T16:56:16.373Z,99.90
2023-05-16T16:58:43.416Z,99.90
2023-05-16T17:01:13.003Z,99.90
2023-05-16T17:03:40.837Z,99.90
2023-05-16T17:06:11.420Z,99.90
2023-05-16T17:08:38.723Z,99.90
2023-05-16T17:11:07.757Z,99.90
2023-05-16T17:13:37.897Z,99.90
2023-05-16T17:16:05.478Z,99.90
2023-05-16T17:18:34.793Z,99.90
2023-05-16T17:21:04.593Z,99.90
2023-05-16T17:23:32.872Z,99.90
2023-05-16T17:26:00.128Z,99.90
2023-05-16T17:28:27.180Z,99.90
2023-05-16T17:30:54.345Z,99.90
2023-05-16T17:33:24.314Z,99.90
2023-05-16T17:35:51.436Z,99.90
2023-05-16T17:38:18.513Z,99.90
2023-05-16T17:40:48.075Z,99.90
2023-05-16T17:43:16.651Z,99.90
2023-05-16T17:45:46.365Z,99.90
2023-05-16T17:48:13.949Z,99.90
2023-05-16T17:50:41.687Z,99.90
2023-05-16T17:53:09.290Z,99.90
2023-05-16T17:55:38.290Z,99.90
2023-05-16T17:58:06.908Z,99.90
2023-05-16T18:00:33.996Z,99.90
2023-05-16T18:03:01.306Z,99.90
2023-05-16T18:05:29.861Z,99.90
2023-05-16T18:07:57.752Z,99.90
2023-05-16T18:10:25.610Z,99.90
2023-05-16T18:12:53.715Z,99.90
2023-05-16T18:15:20.785Z,99.90
2023-05-16T18:17:47.875Z,99.90
2023-05-16T18:20:15.390Z,99.90
2023-05-16T18:22:42.904Z,99.90
2023-05-16T18:25:10.970Z,99.90
2023-05-16T18:27:38.661Z,99.90
2023-05-16T18:30:08.039Z,99.90
2023-05-16T18:32:36.714Z,99.90
2023-05-16T18:35:03.928Z,99.90
2023-05-16T18:37:31.289Z,99.90
2023-05-16T18:39:58.333Z,99.90
2023-05-16T18:42:27.405Z,99.90
2023-05-16T18:44:54.478Z,99.90
2023-05-16T18:47:21.936Z,99.90
2023-05-16T18:49:49.038Z,99.90
2023-05-16T18:52:16.130Z,99.90
2023-05-16T18:54:43.139Z,99.90
2023-05-16T18:57:10.216Z,99.90
2023-05-16T18:59:37.962Z,99.90
2023-05-16T19:02:05.271Z,99.90
2023-05-16T19:04:32.467Z,99.90
2023-05-16T19:07:00.557Z,99.90
2023-05-16T19:09:28.894Z,99.90
2023-05-16T19:11:59.739Z,99.90
2023-05-16T19:14:30.933Z,99.90
2023-05-16T19:16:58.471Z,99.90
2023-05-16T19:19:25.719Z,99.90
2023-05-16T19:21:55.961Z,99.90
2023-05-16T19:24:23.071Z,99.90
2023-05-16T19:26:50.330Z,99.90
2023-05-16T19:29:17.426Z,99.90
2023-05-16T19:31:46.653Z,99.90
2023-05-16T19:34:18.726Z,99.90
2023-05-16T19:36:51.168Z,99.90
2023-05-16T19:39:18.427Z,99.90
2023-05-16T19:41:51.562Z,99.90
2023-05-16T19:44:21.888Z,99.90
2023-05-16T19:46:49.005Z,99.90
2023-05-16T19:49:19.528Z,99.90
2023-05-16T19:51:47.446Z,99.90
2023-05-16T19:54:14.565Z,99.90
2023-05-16T19:56:44.285Z,99.90
2023-05-16T19:59:11.379Z,99.90
2023-05-16T20:01:38.496Z,99.90
2023-05-16T20:04:06.470Z,99.90
2023-05-16T20:06:33.652Z,99.90
2023-05-16T20:09:00.755Z,99.90
2023-05-16T20:11:27.844Z,99.90
2023-05-16T20:13:55.883Z,99.90
2023-05-16T20:16:22.982Z,99.90
2023-05-16T20:18:50.151Z,99.90
2023-05-16T20:21:18.785Z,99.90
2023-05-16T20:23:46.349Z,99.90
2023-05-16T20:26:15.026Z,99.90
2023-05-16T20:28:42.960Z,99.90
2023-05-16T20:31:10.002Z,99.90
2023-05-16T20:33:37.154Z,99.90
2023-05-16T20:36:09.745Z,99.90
2023-05-16T20:38:41.345Z,99.90
2023-05-16T20:41:11.083Z,99.90
2023-05-16T20:43:38.158Z,99.90
2023-05-16T20:46:05.473Z,99.90
2023-05-16T20:48:32.549Z,99.90
2023-05-16T20:51:01.482Z,99.90
2023-05-16T20:53:28.567Z,99.90
2023-05-16T20:55:55.679Z,99.90
2023-05-16T20:58:22.770Z,99.90
2023-05-16T21:00:49.779Z,99.90
2023-05-16T21:03:16.792Z,99.90
2023-05-16T21:05:43.901Z,99.90
2023-05-16T21:08:11.011Z,99.90
2023-05-16T21:10:38.062Z,99.90
2023-05-16T21:13:05.110Z,99.90
2023-05-16T21:15:32.306Z,99.90
2023-05-16T21:17:59.784Z,99.90
2023-05-16T21:20:30.221Z,99.90
2023-05-16T21:22:57.295Z,99.90
2023-05-16T21:25:24.397Z,99.90
2023-05-16T21:27:54.076Z,99.90
2023-05-16T21:30:21.180Z,99.90
2023-05-16T21:32:48.257Z,99.90
2023-05-16T21:35:15.325Z,99.90
2023-05-16T21:37:42.388Z,99.90
2023-05-16T21:40:09.652Z,99.90
2023-05-16T21:42:36.982Z,99.90
2023-05-16T21:45:12.657Z,99.90
2023-05-16T21:47:39.915Z,99.90
2023-05-16T21:50:07.751Z,99.90
2023-05-16T21:52:34.776Z,99.90
2023-05-16T21:55:01.841Z,99.90
2023-05-16T21:57:28.835Z,99.90
2023-05-16T21:59:55.943Z,99.90
2023-05-16T22:02:23.378Z,99.90
2023-05-16T22:04:53.724Z,99.90
2023-05-16T22:07:20.854Z,99.90
2023-05-16T22:09:51.125Z,99.90
2023-05-16T22:12:18.161Z,99.90
2023-05-16T22:14:45.401Z,99.90
2023-05-16T22:17:12.489Z,99.90
2023-05-16T22:19:39.643Z,99.90
2023-05-16T22:22:07.026Z,99.90
2023-05-16T22:24:34.105Z,99.90
2023-05-16T22:27:01.172Z,99.90
2023-05-16T22:29:30.715Z,99.90
2023-05-16T22:31:57.713Z,99.90
2023-05-16T22:34:24.752Z,99.90
2023-05-16T22:36:52.327Z,99.90
2023-05-16T22:39:19.332Z,99.90
2023-05-16T22:41:47.080Z,99.90
2023-05-16T22:44:14.102Z,99.90
2023-05-16T22:46:41.245Z,99.90
2023-05-16T22:49:08.272Z,99.90
2023-05-16T22:51:35.641Z,99.90
2023-05-16T22:54:02.693Z,99.90
2023-05-16T22:56:32.869Z,99.90
2023-05-16T22:59:00.040Z,99.90
2023-05-16T23:01:27.396Z,99.90
2023-05-16T23:03:54.581Z,99.90
2023-05-16T23:06:21.654Z,99.90
2023-05-16T23:08:48.821Z,99.90
2023-05-16T23:11:15.904Z,99.90
2023-05-16T23:13:42.877Z,99.90
2023-05-16T23:16:10.063Z,99.90
2023-05-16T23:18:37.235Z,99.90
2023-05-16T23:21:04.486Z,99.90
2023-05-16T23:23:31.523Z,99.90
2023-05-16T23:25:58.643Z,99.90
2023-05-16T23:28:25.733Z,99.90
2023-05-16T23:30:52.727Z,99.90
2023-05-16T23:33:19.853Z,99.90
2023-05-16T23:35:47.073Z,99.90
2023-05-16T23:38:14.069Z,99.90
2023-05-16T23:40:41.118Z,99.90
2023-05-16T23:43:08.176Z,99.90
2023-05-16T23:45:35.260Z,99.90
2023-05-16T23:48:02.351Z,99.90
2023-05-16T23:50:29.498Z,99.90
2023-05-16T23:52:56.524Z,99.90
2023-05-16T23:55:23.738Z,99.90
2023-05-16T23:57:50.832Z,99.90
